createdAt,value
2022-12-03T00:00:20.608Z,3.67
2022-12-03T00:02:48.869Z,3.60
2022-12-03T00:05:17.010Z,3.64
2022-12-03T00:07:45.085Z,3.96
2022-12-03T00:10:14.531Z,4.02
2022-12-03T00:12:42.633Z,3.89
2022-12-03T00:15:12.577Z,3.66
2022-12-03T00:17:40.608Z,3.72
2022-12-03T00:20:10.219Z,3.61
2022-12-03T00:22:38.271Z,3.65
2022-12-03T00:25:07.319Z,3.55
2022-12-03T00:27:36.693Z,3.50
2022-12-03T00:30:05.516Z,3.63
2022-12-03T00:32:33.553Z,3.58
2022-12-03T00:35:01.578Z,3.59
2022-12-03T00:37:30.556Z,3.55
2022-12-03T00:39:58.575Z,3.55
2022-12-03T00:42:26.645Z,3.42
2022-12-03T00:44:56.168Z,3.80
2022-12-03T00:47:24.322Z,3.65
2022-12-03T00:49:52.983Z,3.63
2022-12-03T00:52:21.113Z,3.80
2022-12-03T00:54:50.475Z,3.59
2022-12-03T00:57:19.065Z,3.89
2022-12-03T00:59:47.187Z,3.67
2022-12-03T01:02:16.965Z,3.58
2022-12-03T01:04:45.175Z,3.81
2022-12-03T01:07:13.331Z,3.64
2022-12-03T01:09:41.346Z,3.64
2022-12-03T01:12:09.454Z,3.63
2022-12-03T01:14:37.681Z,3.93
2022-12-03T01:17:06.901Z,3.65
2022-12-03T01:19:36.552Z,3.67
2022-12-03T01:22:04.759Z,3.70
2022-12-03T01:24:32.866Z,3.77
2022-12-03T01:27:01.019Z,3.97
2022-12-03T01:29:29.033Z,3.85
2022-12-03T01:32:14.865Z,3.89
2022-12-03T01:34:44.474Z,3.84
2022-12-03T01:37:12.529Z,3.55
2022-12-03T01:39:40.702Z,3.53
2022-12-03T01:42:09.526Z,3.73
2022-12-03T01:44:38.483Z,3.69
2022-12-03T01:47:08.266Z,3.68
2022-12-03T01:49:40.675Z,3.62
2022-12-03T01:52:12.661Z,3.66
2022-12-03T01:54:43.132Z,3.81
2022-12-03T01:57:20.429Z,3.61
2022-12-03T01:59:48.767Z,3.70
2022-12-03T02:02:22.157Z,3.74
2022-12-03T02:05:00.319Z,3.63
2022-12-03T02:07:40.507Z,3.56
2022-12-03T02:10:19.185Z,3.73
2022-12-03T02:12:53.182Z,3.81
2022-12-03T02:15:37.575Z,3.76
2022-12-03T02:18:16.190Z,3.77
2022-12-03T02:20:50.732Z,4.01
2022-12-03T02:23:30.920Z,3.77
2022-12-03T02:26:10.862Z,3.77
2022-12-03T02:28:40.146Z,3.55
2022-12-03T02:31:12.312Z,3.71
2022-12-03T02:33:45.791Z,3.61
2022-12-03T02:36:16.567Z,3.83
2022-12-03T02:38:54.385Z,3.90
2022-12-03T02:41:41.434Z,4.06
2022-12-03T02:44:12.057Z,4.02
2022-12-03T02:46:47.511Z,3.91
2022-12-03T02:49:18.343Z,3.85
2022-12-03T02:51:55.577Z,4.04
2022-12-03T02:54:33.075Z,3.92
2022-12-03T02:57:05.528Z,4.18
2022-12-03T02:59:33.785Z,4.04
2022-12-03T03:02:03.735Z,3.85
2022-12-03T03:04:40.732Z,4.07
2022-12-03T03:07:12.439Z,4.13
2022-12-03T03:09:44.211Z,3.95
2022-12-03T03:12:24.864Z,3.84
2022-12-03T03:14:57.004Z,3.89
2022-12-03T03:17:27.774Z,3.82
2022-12-03T03:19:57.500Z,3.88
2022-12-03T03:22:38.565Z,3.72
2022-12-03T03:25:15.507Z,4.01
2022-12-03T03:27:46.228Z,3.91
2022-12-03T03:30:27.249Z,3.81
2022-12-03T03:32:57.556Z,3.97
2022-12-03T03:35:29.080Z,4.26
2022-12-03T03:38:06.023Z,3.97
2022-12-03T03:40:37.882Z,3.85
2022-12-03T03:43:21.819Z,3.88
2022-12-03T03:45:52.109Z,3.75
2022-12-03T03:48:31.668Z,3.82
2022-12-03T03:51:01.199Z,3.90
2022-12-03T03:53:38.566Z,3.78
2022-12-03T03:56:11.335Z,3.94
2022-12-03T03:58:41.237Z,3.85
2022-12-03T04:01:17.447Z,3.72
2022-12-03T04:03:50.575Z,3.69
2022-12-03T04:06:25.058Z,3.76
2022-12-03T04:08:53.445Z,3.87
2022-12-03T04:14:40.903Z,4.31
2022-12-03T04:17:09.514Z,4.02
2022-12-03T04:19:40.447Z,4.03
2022-12-03T04:22:28.273Z,4.05
2022-12-03T04:25:22.468Z,3.93
2022-12-03T04:28:21.046Z,3.89
2022-12-03T04:31:02.550Z,4.08
2022-12-03T04:33:52.071Z,3.93
2022-12-03T04:36:20.935Z,4.20
2022-12-03T04:38:53.159Z,4.04
2022-12-03T04:41:28.953Z,3.85
2022-12-03T04:44:19.163Z,3.88
2022-12-03T04:46:58.272Z,4.15
2022-12-03T04:49:32.227Z,3.87
2022-12-03T04:52:01.199Z,3.88
2022-12-03T04:54:37.606Z,4.00
2022-12-03T04:57:08.145Z,4.12
2022-12-03T04:59:39.773Z,4.17
2022-12-03T05:02:14.701Z,4.15
2022-12-03T05:04:53.800Z,4.14
2022-12-03T05:07:26.131Z,4.05
2022-12-03T05:09:57.576Z,3.77
2022-12-03T05:12:25.955Z,3.77
2022-12-03T05:14:54.496Z,4.28
2022-12-03T05:17:31.965Z,3.92
2022-12-03T05:20:17.880Z,3.91
2022-12-03T05:22:48.451Z,4.29
2022-12-03T05:25:24.758Z,4.07
2022-12-03T05:27:56.102Z,4.00
2022-12-03T05:30:28.373Z,3.86
2022-12-03T05:33:15.837Z,3.82
2022-12-03T05:35:46.621Z,3.75
2022-12-03T05:38:18.256Z,3.88
2022-12-03T05:40:55.951Z,3.81
2022-12-03T05:43:23.384Z,4.15
2022-12-03T05:45:54.875Z,3.86
2022-12-03T05:48:29.496Z,3.90
2022-12-03T05:51:00.110Z,3.78
2022-12-03T05:53:29.921Z,3.89
2022-12-03T05:55:58.667Z,4.08
2022-12-03T05:58:31.338Z,3.92
2022-12-03T06:01:09.854Z,4.08
2022-12-03T06:03:43.446Z,4.13
2022-12-03T06:06:14.892Z,4.24
2022-12-03T06:08:53.172Z,4.08
2022-12-03T06:11:27.071Z,3.79
2022-12-03T06:13:57.823Z,4.23
2022-12-03T06:16:26.276Z,3.97
2022-12-03T06:19:08.123Z,4.23
2022-12-03T06:21:36.168Z,3.96
2022-12-03T06:24:04.336Z,3.93
2022-12-03T06:26:32.399Z,3.93
2022-12-03T06:29:00.563Z,4.10
2022-12-03T06:31:28.758Z,4.13
2022-12-03T06:33:58.304Z,4.54
2022-12-03T06:36:27.702Z,4.25
2022-12-03T06:38:55.752Z,3.92
2022-12-03T06:41:23.818Z,4.11
2022-12-03T06:43:51.969Z,4.01
2022-12-03T06:46:20.054Z,3.99
2022-12-03T06:48:48.154Z,4.01
2022-12-03T06:51:17.688Z,4.13
2022-12-03T06:53:45.817Z,4.21
2022-12-03T06:56:14.015Z,4.42
2022-12-03T06:58:42.103Z,4.14
2022-12-03T07:01:10.233Z,4.31
2022-12-03T07:03:38.529Z,4.17
2022-12-03T07:06:07.093Z,4.08
2022-12-03T07:08:36.590Z,4.03
2022-12-03T07:11:04.757Z,4.17
2022-12-03T07:13:32.851Z,4.40
2022-12-03T07:16:00.956Z,4.47
2022-12-03T07:18:29.007Z,4.35
2022-12-03T07:20:57.165Z,4.35
2022-12-03T07:23:25.217Z,4.30
2022-12-03T07:25:54.591Z,4.07
2022-12-03T07:28:22.670Z,4.14
2022-12-03T07:30:50.791Z,4.12
2022-12-03T07:33:18.937Z,4.17
2022-12-03T07:35:46.907Z,4.03
2022-12-03T07:38:14.962Z,4.00
2022-12-03T07:40:43.171Z,4.02
2022-12-03T07:43:12.706Z,4.04
2022-12-03T07:45:40.885Z,3.96
2022-12-03T07:48:09.221Z,4.00
2022-12-03T07:50:37.282Z,4.17
2022-12-03T07:53:05.377Z,4.09
2022-12-03T07:55:33.558Z,4.20
2022-12-03T07:58:01.582Z,4.17
2022-12-03T08:00:31.058Z,4.13
2022-12-03T08:02:59.101Z,4.18
2022-12-03T08:05:29.595Z,4.15
2022-12-03T08:07:57.835Z,4.06
2022-12-03T08:10:26.796Z,4.15
2022-12-03T08:13:00.302Z,4.14
2022-12-03T08:15:35.356Z,4.25
2022-12-03T08:18:14.164Z,4.27
2022-12-03T08:20:43.434Z,4.41
2022-12-03T08:23:15.170Z,4.33
2022-12-03T08:25:44.208Z,4.54
2022-12-03T08:28:17.091Z,4.50
2022-12-03T08:30:48.897Z,4.49
2022-12-03T08:33:21.453Z,4.35
2022-12-03T08:35:52.044Z,4.29
2022-12-03T08:38:23.078Z,4.23
2022-12-03T08:40:52.734Z,4.49
2022-12-03T08:43:21.573Z,4.31
2022-12-03T08:45:52.088Z,4.65
2022-12-03T08:48:33.725Z,4.56
2022-12-03T08:51:05.007Z,4.41
2022-12-03T08:53:35.963Z,4.46
2022-12-03T08:56:06.379Z,4.56
2022-12-03T08:58:39.836Z,4.67
2022-12-03T09:01:32.104Z,4.46
2022-12-03T09:04:12.597Z,4.39
2022-12-03T09:06:41.106Z,4.49
2022-12-03T09:09:09.217Z,4.47
2022-12-03T09:11:37.537Z,4.59
2022-12-03T09:14:05.667Z,4.48
2022-12-03T09:16:35.268Z,4.71
2022-12-03T09:19:03.398Z,4.67
2022-12-03T09:21:31.475Z,4.62
2022-12-03T09:23:59.522Z,4.53
2022-12-03T09:26:29.787Z,4.72
2022-12-03T09:28:57.825Z,4.78
2022-12-03T09:31:25.938Z,4.70
2022-12-03T09:33:55.428Z,4.95
2022-12-03T09:36:23.489Z,4.74
2022-12-03T09:38:51.599Z,5.08
2022-12-03T09:41:19.733Z,4.83
2022-12-03T09:44:03.814Z,5.06
2022-12-03T09:46:32.979Z,4.95
2022-12-03T09:49:03.344Z,4.88
2022-12-03T09:51:35.839Z,4.97
2022-12-03T09:54:06.356Z,5.27
2022-12-03T09:56:38.302Z,5.52
2022-12-03T09:59:08.309Z,5.17
2022-12-03T10:01:37.009Z,5.31
2022-12-03T10:04:06.543Z,5.43
2022-12-03T10:06:34.764Z,5.38
2022-12-03T10:09:02.839Z,5.13
2022-12-03T10:11:31.891Z,5.13
2022-12-03T10:14:00.081Z,5.19
2022-12-03T10:16:30.759Z,5.18
2022-12-03T10:19:01.058Z,5.16
2022-12-03T10:21:33.280Z,5.11
2022-12-03T10:24:25.755Z,5.40
2022-12-03T10:26:55.433Z,5.43
2022-12-03T10:29:31.380Z,5.33
2022-12-03T10:32:04.063Z,5.34
2022-12-03T10:34:33.779Z,5.19
2022-12-03T10:37:15.029Z,5.18
2022-12-03T10:40:00.771Z,5.20
2022-12-03T10:42:30.609Z,4.85
2022-12-03T10:45:09.919Z,5.28
2022-12-03T10:47:39.445Z,5.34
2022-12-03T10:50:16.974Z,5.01
2022-12-03T10:52:47.038Z,5.15
2022-12-03T10:55:18.388Z,5.41
2022-12-03T10:57:47.121Z,5.08
2022-12-03T11:00:20.018Z,5.00
2022-12-03T11:02:54.928Z,4.94
2022-12-03T11:05:28.003Z,5.03
2022-12-03T11:07:58.399Z,5.04
2022-12-03T11:10:26.637Z,5.06
2022-12-03T11:13:29.619Z,5.18
2022-12-03T11:15:58.457Z,5.20
2022-12-03T11:19:02.390Z,5.27
2022-12-03T11:21:31.622Z,4.94
2022-12-03T11:24:22.846Z,4.86
2022-12-03T11:27:24.467Z,4.80
2022-12-03T11:29:57.699Z,4.99
2022-12-03T11:33:00.457Z,5.06
2022-12-03T11:35:29.820Z,4.94
2022-12-03T11:38:41.111Z,4.78
2022-12-03T11:41:11.791Z,4.96
2022-12-03T11:44:13.890Z,4.83
2022-12-03T11:46:43.754Z,4.72
2022-12-03T11:49:33.057Z,4.77
2022-12-03T11:52:04.086Z,4.76
2022-12-03T11:54:36.240Z,4.64
2022-12-03T11:57:26.243Z,4.71
2022-12-03T12:00:02.940Z,4.88
2022-12-03T12:02:40.091Z,4.67
2022-12-03T12:05:26.203Z,5.01
2022-12-03T12:07:55.026Z,4.82
2022-12-03T12:10:43.769Z,5.18
2022-12-03T12:13:28.389Z,4.94
2022-12-03T12:15:59.489Z,4.89
2022-12-03T12:18:42.432Z,4.95
2022-12-03T12:21:47.688Z,5.04
2022-12-03T12:24:33.286Z,5.06
2022-12-03T12:27:04.680Z,5.36
2022-12-03T12:29:34.415Z,4.86
2022-12-03T12:32:08.911Z,5.07
2022-12-03T12:34:38.463Z,4.96
2022-12-03T12:37:11.658Z,5.18
2022-12-03T12:39:39.961Z,4.94
2022-12-03T12:42:25.412Z,5.01
2022-12-03T12:44:55.238Z,5.19
2022-12-03T12:47:23.341Z,5.12
2022-12-03T12:49:52.041Z,4.98
2022-12-03T12:52:20.478Z,5.15
2022-12-03T12:54:48.657Z,5.08
2022-12-03T12:57:23.278Z,5.20
2022-12-03T12:59:52.488Z,5.25
2022-12-03T13:02:38.370Z,5.20
2022-12-03T13:05:07.146Z,5.09
2022-12-03T13:07:35.242Z,4.97
2022-12-03T13:10:21.297Z,4.84
2022-12-03T13:12:49.406Z,4.98
2022-12-03T13:15:33.909Z,5.21
2022-12-03T13:18:24.853Z,5.04
2022-12-03T13:20:53.131Z,5.23
2022-12-03T13:23:36.685Z,5.10
2022-12-03T13:26:30.361Z,5.27
2022-12-03T13:29:08.308Z,5.10
2022-12-03T13:31:43.527Z,5.25
2022-12-03T13:34:18.007Z,5.15
2022-12-03T13:36:50.728Z,4.96
2022-12-03T13:39:28.941Z,5.06
2022-12-03T13:42:14.210Z,4.94
2022-12-03T13:44:45.717Z,5.00
2022-12-03T13:47:15.308Z,4.87
2022-12-03T13:49:49.145Z,5.01
2022-12-03T13:52:18.409Z,5.19
2022-12-03T13:54:46.594Z,5.35
2022-12-03T13:57:14.653Z,5.18
2022-12-03T13:59:42.719Z,4.93
2022-12-03T14:02:12.878Z,4.78
2022-12-03T14:04:41.839Z,5.36
2022-12-03T14:07:11.255Z,5.15
2022-12-03T14:09:39.329Z,4.95
2022-12-03T14:12:21.490Z,5.04
2022-12-03T14:14:50.935Z,4.86
2022-12-03T14:17:19.236Z,4.98
2022-12-03T14:19:47.451Z,5.03
2022-12-03T14:22:18.769Z,4.89
2022-12-03T14:24:46.809Z,4.90
2022-12-03T14:27:15.296Z,5.16
2022-12-03T14:29:43.455Z,5.44
2022-12-03T14:32:11.592Z,5.33
2022-12-03T14:34:39.806Z,4.99
2022-12-03T14:37:07.921Z,5.12
2022-12-03T14:39:38.143Z,5.01
2022-12-03T14:42:15.391Z,4.90
2022-12-03T14:44:45.134Z,4.88
2022-12-03T14:47:13.931Z,4.83
2022-12-03T14:49:42.147Z,4.92
2022-12-03T14:52:12.518Z,4.87
2022-12-03T14:54:43.185Z,4.81
2022-12-03T14:57:12.564Z,4.91
2022-12-03T14:59:41.129Z,5.05
2022-12-03T15:02:09.748Z,5.02
2022-12-03T15:04:38.300Z,4.97
2022-12-03T15:07:07.532Z,5.11
2022-12-03T15:09:36.041Z,4.92
2022-12-03T15:12:06.271Z,4.94
2022-12-03T15:14:34.342Z,5.15
2022-12-03T15:17:04.927Z,4.98
2022-12-03T15:19:33.092Z,4.92
2022-12-03T15:22:01.166Z,4.98
2022-12-03T15:24:29.364Z,5.05
2022-12-03T15:26:57.491Z,5.01
2022-12-03T15:29:27.400Z,5.03
2022-12-03T15:31:59.344Z,5.03
2022-12-03T15:34:28.576Z,5.10
2022-12-03T15:36:56.937Z,5.25
2022-12-03T15:39:25.252Z,5.07
2022-12-03T15:41:53.549Z,4.98
2022-12-03T15:44:22.695Z,5.10
2022-12-03T15:46:52.639Z,5.18
2022-12-03T15:49:20.990Z,4.93
2022-12-03T15:51:49.392Z,4.98
2022-12-03T15:54:17.438Z,5.11
2022-12-03T15:56:45.533Z,5.03
2022-12-03T15:59:14.830Z,4.94
2022-12-03T16:01:43.055Z,5.34
2022-12-03T16:04:12.786Z,5.15
2022-12-03T16:06:41.815Z,5.04
2022-12-03T16:09:10.243Z,5.26
2022-12-03T16:11:39.117Z,5.04
2022-12-03T16:14:07.999Z,5.14
2022-12-03T16:16:36.266Z,5.20
2022-12-03T16:19:04.865Z,5.20
2022-12-03T16:21:35.412Z,5.12
2022-12-03T16:24:04.901Z,5.20
2022-12-03T16:26:34.431Z,5.04
2022-12-03T16:29:03.334Z,5.23
2022-12-03T16:31:31.575Z,5.15
2022-12-03T16:34:00.823Z,5.12
2022-12-03T16:36:30.891Z,5.38
2022-12-03T16:39:01.298Z,5.18
2022-12-03T16:41:30.320Z,4.97
2022-12-03T16:44:02.690Z,5.07
2022-12-03T16:46:31.456Z,5.18
2022-12-03T16:49:00.409Z,5.06
2022-12-03T16:51:31.111Z,5.09
2022-12-03T16:54:00.954Z,5.02
2022-12-03T16:56:29.391Z,5.25
2022-12-03T16:58:58.164Z,5.12
2022-12-03T17:01:26.972Z,5.19
2022-12-03T17:03:56.088Z,5.11
2022-12-03T17:06:24.386Z,5.18
2022-12-03T17:08:52.680Z,5.32
2022-12-03T17:11:22.710Z,5.38
2022-12-03T17:13:50.933Z,5.26
2022-12-03T17:16:19.184Z,5.40
2022-12-03T17:18:47.913Z,5.24
2022-12-03T17:21:16.238Z,5.08
2022-12-03T17:23:44.997Z,5.41
2022-12-03T17:26:14.942Z,5.19
2022-12-03T17:28:44.753Z,5.41
2022-12-03T17:31:14.077Z,5.20
2022-12-03T17:33:42.894Z,5.29
2022-12-03T17:36:11.486Z,5.19
2022-12-03T17:38:39.676Z,5.18
2022-12-03T17:41:08.417Z,5.29
2022-12-03T17:43:36.855Z,5.19
2022-12-03T17:46:07.414Z,5.27
2022-12-03T17:48:36.107Z,5.27
2022-12-03T17:51:04.222Z,5.06
2022-12-03T17:53:33.117Z,5.28
2022-12-03T17:56:01.159Z,5.27
2022-12-03T17:58:29.791Z,5.44
2022-12-03T18:01:02.796Z,5.16
2022-12-03T18:03:33.814Z,5.19
2022-12-03T18:06:02.252Z,5.24
2022-12-03T18:08:30.409Z,5.19
2022-12-03T18:10:58.570Z,5.31
2022-12-03T18:13:27.301Z,5.49
2022-12-03T18:15:56.834Z,5.52
2022-12-03T18:18:25.848Z,5.67
2022-12-03T18:21:02.091Z,5.31
2022-12-03T18:23:30.568Z,5.25
2022-12-03T18:25:59.054Z,5.30
2022-12-03T18:28:32.284Z,5.31
2022-12-03T18:31:01.343Z,5.31
2022-12-03T18:33:29.854Z,5.19
2022-12-03T18:36:00.921Z,5.32
2022-12-03T18:38:31.654Z,5.26
2022-12-03T18:41:01.121Z,5.42
2022-12-03T18:43:39.306Z,5.33
2022-12-03T18:46:31.098Z,5.26
2022-12-03T18:49:01.913Z,5.32
2022-12-03T18:51:32.258Z,5.28
2022-12-03T18:54:01.376Z,5.26
2022-12-03T18:56:31.569Z,5.27
2022-12-03T18:59:00.326Z,5.45
2022-12-03T19:01:29.413Z,5.24
2022-12-03T19:03:59.387Z,5.35
2022-12-03T19:06:31.734Z,5.37
2022-12-03T19:09:02.097Z,5.42
2022-12-03T19:11:31.933Z,5.43
2022-12-03T19:14:03.301Z,5.48
2022-12-03T19:16:33.389Z,5.39
2022-12-03T19:19:06.370Z,5.37
2022-12-03T19:21:38.614Z,5.38
2022-12-03T19:24:25.508Z,5.53
2022-12-03T19:26:56.283Z,5.63
2022-12-03T19:29:26.610Z,5.61
2022-12-03T19:31:55.972Z,5.49
2022-12-03T19:34:25.109Z,5.43
2022-12-03T19:36:56.358Z,5.60
2022-12-03T19:39:26.087Z,5.36
2022-12-03T19:41:59.149Z,5.42
2022-12-03T19:44:31.554Z,5.56
2022-12-03T19:47:02.201Z,5.66
2022-12-03T19:49:34.080Z,5.50
2022-12-03T19:52:04.614Z,5.66
2022-12-03T19:54:35.821Z,5.40
2022-12-03T19:57:05.982Z,5.35
2022-12-03T19:59:37.928Z,5.61
2022-12-03T20:02:08.497Z,5.61
2022-12-03T20:04:39.070Z,5.65
2022-12-03T20:07:10.366Z,5.76
2022-12-03T20:12:26.424Z,5.40
2022-12-03T20:14:55.504Z,5.81
2022-12-03T20:17:24.839Z,5.89
2022-12-03T20:19:54.673Z,5.70
2022-12-03T20:22:25.737Z,5.71
2022-12-03T20:24:56.090Z,5.53
2022-12-03T20:27:25.703Z,5.42
2022-12-03T20:29:57.019Z,5.55
2022-12-03T20:32:26.162Z,5.43
2022-12-03T20:34:55.132Z,5.68
2022-12-03T20:37:27.083Z,5.56
2022-12-03T20:40:00.353Z,5.42
2022-12-03T20:42:31.794Z,5.55
2022-12-03T20:45:01.501Z,5.83
2022-12-03T20:47:31.024Z,5.64
2022-12-03T20:50:01.166Z,5.56
2022-12-03T20:52:32.478Z,5.80
2022-12-03T20:55:01.876Z,5.50
2022-12-03T20:57:36.311Z,5.51
2022-12-03T21:00:06.780Z,5.63
2022-12-03T21:02:38.649Z,5.66
2022-12-03T21:05:09.421Z,5.57
2022-12-03T21:07:39.505Z,5.53
2022-12-03T21:10:30.982Z,5.60
2022-12-03T21:12:59.768Z,5.67
2022-12-03T21:15:28.772Z,5.69
2022-12-03T21:17:58.006Z,5.52
2022-12-03T21:20:26.754Z,5.62
2022-12-03T21:22:57.295Z,5.50
2022-12-03T21:25:26.144Z,5.71
2022-12-03T21:27:55.673Z,5.87
2022-12-03T21:30:23.959Z,5.57
2022-12-03T21:32:52.478Z,5.54
2022-12-03T21:35:20.619Z,5.54
2022-12-03T21:37:50.772Z,5.59
2022-12-03T21:40:20.654Z,5.55
2022-12-03T21:42:49.754Z,5.64
2022-12-03T21:45:18.179Z,5.55
2022-12-03T21:47:49.374Z,5.53
2022-12-03T21:50:18.052Z,5.48
2022-12-03T21:52:46.661Z,5.66
2022-12-03T21:55:14.800Z,5.63
2022-12-03T21:57:45.044Z,5.56
2022-12-03T22:00:14.607Z,5.40
2022-12-03T22:02:42.901Z,5.40
2022-12-03T22:05:15.173Z,5.53
2022-12-03T22:07:43.535Z,5.52
2022-12-03T22:10:14.587Z,5.45
2022-12-03T22:12:44.041Z,5.58
2022-12-03T22:15:18.491Z,5.62
2022-12-03T22:17:47.065Z,5.69
2022-12-03T22:20:15.697Z,5.59
2022-12-03T22:22:43.858Z,5.52
2022-12-03T22:25:11.927Z,5.69
2022-12-03T22:27:40.079Z,5.58
2022-12-03T22:30:10.372Z,5.67
2022-12-03T22:32:38.402Z,5.62
2022-12-03T22:35:07.148Z,5.57
2022-12-03T22:37:35.229Z,5.51
2022-12-03T22:40:03.612Z,5.54
2022-12-03T22:42:31.665Z,5.44
2022-12-03T22:44:59.751Z,5.54
2022-12-03T22:47:29.153Z,5.57
2022-12-03T22:49:57.373Z,5.50
2022-12-03T22:52:25.575Z,5.63
2022-12-03T22:54:53.790Z,5.75
2022-12-03T22:57:22.028Z,5.52
2022-12-03T22:59:50.034Z,5.49
2022-12-03T23:02:18.169Z,5.33
2022-12-03T23:04:47.568Z,5.48
2022-12-03T23:07:15.724Z,5.42
2022-12-03T23:09:43.777Z,5.44
2022-12-03T23:12:12.016Z,5.34
2022-12-03T23:14:40.272Z,5.54
2022-12-03T23:17:08.320Z,5.28
2022-12-03T23:19:36.908Z,5.35
2022-12-03T23:22:06.304Z,5.25
2022-12-03T23:24:34.327Z,5.34
2022-12-03T23:27:02.397Z,5.40
2022-12-03T23:29:30.395Z,5.39
2022-12-03T23:31:58.390Z,5.54
2022-12-03T23:34:26.531Z,5.50
2022-12-03T23:36:54.674Z,5.66
2022-12-03T23:39:24.178Z,5.47
2022-12-03T23:41:54.748Z,5.46
2022-12-03T23:44:34.806Z,5.47
2022-12-03T23:47:05.974Z,5.42
2022-12-03T23:49:36.421Z,5.37
2022-12-03T23:52:07.364Z,5.33
2022-12-03T23:54:47.551Z,5.30
2022-12-03T23:57:17.255Z,5.44
2022-12-03T23:59:53.468Z,5.49
